map of RUI home
RUI - Airport
Location
City:  Ruidoso, New Mexico, United States
Name:Sierra Blanca Regional
ICAO:KSRR
IATA:RUI
FAA LID:SRR

Details
Type:Airport (Part 139 Class IV)
Use:Public/Civil
Latitude:3327'39"N (33.460944)
Longitude:10531'48"W (-105.530138)
Datum:WGS 1984
Elevation:6813 ft (2077 m)
Variation:7.77E (WMM2015v2 magnetic declination)
-0.10 annual change
Runways:2
Longest:8120 × 100 ft (2475 × 30.5 m), paved

Weather
METAR:KSRR 041355Z AUTO 13005KT 10SM CLR 04/00 A2996 RMK AO2

Related Locations
Nearby:
Farthest:RRG: 11270 mi / 18137 km
Plaine Corail [Sir Gatan Duval Airport (Plaine Corail Airport)], Rodrigues Island, MU

Find:

   beyond  
but within

Other Information
Maps:
NOTAMs:
Links:
Sources:

  
  • flag of United States
  • flag of New Mexico
  

Sectional Chart

Flight Planning
at skyvector.com

Satellite Image

Google Maps Satellite view

 

Copyright © 2004-2019 Karl L. Swartz. All rights reserved.
The Great Circle Mapper name and logo are trademarks of the Great Circle Mapper.
All other trademarks mentioned herein belong to their respective owners.
Please see credits for attibutions and further copyright information.

  Follow gcmap on Facebook Follow gcmap on Twitter GCmap on LinkedIn

hCard Microformat

Geo Microformat